Time;durP1;ratioP1;P1;durP2;ratioP2;P2;SDS_P1;SDS_P2;PMS_P1;PMS_P2;Temp;Humidity;BMP_temperature;BMP_pressure;BME280_temperature;BME280_humidity;BME280_pressure;Samples;Min_cycle;Max_cycle;Signal;HPM_P1;HPM_P2
2022/09/30 00:01:45;;;;;;;3.45;2.22;;;14.30;90.80;;;;;;5053910;28;20044;-71
2022/09/30 00:04:22;;;;;;;7.15;2.50;;;14.30;90.80;;;;;;5053914;28;20029;-72
2022/09/30 00:06:48;;;;;;;3.47;2.60;;;14.40;90.80;;;;;;5053185;28;20365;-71
2022/09/30 00:09:14;;;;;;;5.65;2.22;;;14.30;91.00;;;;;;5053637;28;20033;-72
2022/09/30 00:11:41;;;;;;;4.28;2.28;;;14.30;90.80;;;;;;5053599;28;20040;-72
2022/09/30 00:14:13;;;;;;;6.13;2.75;;;14.30;90.80;;;;;;5053209;28;20495;-71
2022/09/30 00:16:39;;;;;;;3.65;2.38;;;14.20;90.70;;;;;;5053562;28;20120;-72
2022/09/30 00:19:05;;;;;;;4.22;2.67;;;14.20;90.70;;;;;;5052830;28;20057;-71
2022/09/30 00:21:35;;;;;;;7.53;2.53;;;14.30;90.70;;;;;;5053401;28;20476;-72
2022/09/30 00:24:02;;;;;;;8.70;2.53;;;14.20;90.70;;;;;;5053633;28;20119;-72
2022/09/30 00:26:28;;;;;;;3.17;2.20;;;14.20;90.70;;;;;;5052721;28;20029;-71
2022/09/30 00:28:58;;;;;;;4.00;2.33;;;14.20;90.60;;;;;;5053641;28;20430;-71
2022/09/30 00:31:25;;;;;;;2.83;1.98;;;14.20;90.60;;;;;;5053424;28;20384;-71
2022/09/30 00:34:06;;;;;;;3.83;2.13;;;14.20;90.60;;;;;;5052649;28;20021;-72
2022/09/30 00:36:44;;;;;;;6.35;2.33;;;14.10;90.60;;;;;;5052610;28;20108;-71
2022/09/30 00:39:23;;;;;;;3.65;2.30;;;14.00;90.60;;;;;;5053184;28;20392;-71
2022/09/30 00:41:51;;;;;;;4.57;2.03;;;14.00;90.60;;;;;;5052730;28;20064;-71
2022/09/30 00:44:53;;;;;;;5.53;2.20;;;13.90;90.60;;;;;;5053219;28;20025;-71
2022/09/30 00:48:00;;;;;;;4.45;2.20;;;13.90;90.60;;;;;;5052400;28;20075;-71
2022/09/30 00:50:44;;;;;;;3.95;2.20;;;13.80;90.60;;;;;;5050434;28;20037;-71
2022/09/30 00:53:19;;;;;;;4.65;2.55;;;13.80;90.60;;;;;;5053102;28;20088;-71
2022/09/30 00:55:59;;;;;;;3.13;2.10;;;13.80;90.70;;;;;;5052423;28;20079;-72
2022/09/30 00:58:51;;;;;;;6.68;2.63;;;13.70;90.70;;;;;;5053349;28;20032;-72
2022/09/30 01:01:17;;;;;;;6.75;2.75;;;13.70;90.70;;;;;;5052347;28;20087;-71
2022/09/30 01:04:06;;;;;;;5.07;2.38;;;13.70;90.80;;;;;;5053192;28;20033;-71
2022/09/30 01:06:31;;;;;;;4.85;2.20;;;13.70;90.80;;;;;;5052906;28;20102;-71
2022/09/30 01:08:57;;;;;;;11.45;2.40;;;13.60;90.80;;;;;;5052315;28;20025;-71
2022/09/30 01:11:23;;;;;;;5.38;2.00;;;13.70;90.70;;;;;;5053308;28;20033;-72
2022/09/30 01:13:54;;;;;;;4.60;2.35;;;13.70;90.80;;;;;;5052908;28;20033;-72
2022/09/30 01:16:41;;;;;;;5.30;2.25;;;13.60;90.70;;;;;;5052238;28;20110;-71
2022/09/30 01:19:31;;;;;;;4.57;2.13;;;13.60;90.80;;;;;;5052979;28;20388;-72
2022/09/30 01:22:06;;;;;;;4.93;2.22;;;13.60;90.80;;;;;;5052819;28;20025;-71
2022/09/30 01:24:47;;;;;;;3.95;2.40;;;13.60;90.80;;;;;;5052618;28;20025;-72
2022/09/30 01:27:39;;;;;;;4.75;2.45;;;13.50;90.80;;;;;;5053021;28;20033;-71
2022/09/30 01:30:32;;;;;;;4.20;2.30;;;13.50;90.90;;;;;;5052032;28;20491;-71
2022/09/30 01:33:15;;;;;;;4.13;2.30;;;13.50;90.90;;;;;;5052792;28;20075;-71
2022/09/30 01:35:44;;;;;;;5.53;2.35;;;13.50;90.90;;;;;;5053000;28;20115;-71
2022/09/30 01:38:12;;;;;;;3.78;2.30;;;13.60;90.90;;;;;;5051912;28;20032;-71
2022/09/30 01:41:06;;;;;;;4.40;2.25;;;13.50;90.90;;;;;;5052848;28;20041;-71
2022/09/30 01:43:53;;;;;;;3.47;2.15;;;13.50;90.90;;;;;;5052154;28;20043;-71
2022/09/30 01:46:43;;;;;;;5.47;2.05;;;13.50;90.90;;;;;;5052785;28;20041;-71
2022/09/30 01:49:20;;;;;;;5.65;2.40;;;13.50;90.90;;;;;;5055698;28;20033;-71
2022/09/30 01:52:02;;;;;;;2.95;2.00;;;13.50;90.90;;;;;;5055441;28;20032;-71
2022/09/30 01:54:44;;;;;;;3.67;2.33;;;13.40;90.90;;;;;;5056015;28;20067;-71
2022/09/30 01:57:27;;;;;;;3.47;2.35;;;13.40;90.90;;;;;;5056200;28;20383;-71
2022/09/30 02:00:05;;;;;;;2.35;1.90;;;13.40;90.90;;;;;;5056257;28;20125;-71
2022/09/30 02:03:15;;;;;;;1.73;1.58;;;13.40;90.90;;;;;;5056110;28;20067;-71
2022/09/30 02:05:43;;;;;;;1.98;1.73;;;13.40;91.10;;;;;;5033081;28;20041;-71
2022/09/30 02:08:16;;;;;;;2.17;1.77;;;13.30;90.70;;;;;;5052522;28;20037;-71
2022/09/30 02:10:52;;;;;;;;;;;13.30;90.80;;;;;;5056228;28;20120;-71
2022/09/30 02:13:27;;;;;;;2.95;1.73;;;13.30;90.60;;;;;;5055221;28;19909;-71
2022/09/30 02:15:56;;;;;;;3.67;2.05;;;13.20;90.60;;;;;;5056037;28;20029;-71
2022/09/30 02:18:35;;;;;;;2.60;2.20;;;13.20;90.70;;;;;;5055786;28;20105;-71
2022/09/30 02:21:05;;;;;;;2.10;1.90;;;13.20;90.80;;;;;;5055611;28;20468;-71
2022/09/30 02:23:34;;;;;;;3.17;1.80;;;13.10;90.90;;;;;;5055783;28;20082;-71
2022/09/30 02:26:06;;;;;;;2.33;1.67;;;13.10;91.00;;;;;;5054918;28;20428;-71
2022/09/30 02:28:37;;;;;;;4.43;2.33;;;13.10;91.00;;;;;;5055605;28;20025;-71
2022/09/30 02:31:04;;;;;;;3.67;2.05;;;13.10;91.40;;;;;;5055529;28;20040;-71
2022/09/30 02:33:53;;;;;;;3.10;2.00;;;13.20;91.10;;;;;;5054705;28;20078;-71
2022/09/30 02:36:43;;;;;;;5.15;2.58;;;13.20;91.20;;;;;;5055332;28;20482;-71
2022/09/30 02:39:24;;;;;;;3.88;2.30;;;13.20;91.20;;;;;;5055197;28;20028;-71
2022/09/30 02:41:57;;;;;;;3.15;1.90;;;13.30;91.20;;;;;;5054558;28;20033;-71
2022/09/30 02:44:23;;;;;;;6.20;2.17;;;13.20;91.10;;;;;;5055501;28;20078;-71
2022/09/30 02:47:12;;;;;;;4.75;2.13;;;13.20;91.10;;;;;;5054764;28;20480;-71
2022/09/30 02:49:54;;;;;;;6.60;2.35;;;13.30;91.20;;;;;;5055213;28;20411;-71
2022/09/30 02:53:05;;;;;;;2.47;1.73;;;13.30;91.20;;;;;;5055031;28;20043;-71
2022/09/30 02:55:36;;;;;;;2.60;1.65;;;13.30;91.10;;;;;;5043920;28;20412;-71
2022/09/30 02:58:19;;;;;;;2.47;1.85;;;13.20;91.00;;;;;;5055187;28;20044;-71
2022/09/30 03:00:49;;;;;;;3.35;2.30;;;13.20;91.00;;;;;;5053240;28;20048;-71
2022/09/30 03:03:27;;;;;;;2.38;1.63;;;13.10;90.80;;;;;;5054875;28;20472;-71
2022/09/30 03:05:53;;;;;;;3.60;2.05;;;13.10;90.80;;;;;;5054803;28;20480;-71
2022/09/30 03:08:19;;;;;;;4.40;1.92;;;13.00;90.70;;;;;;5053986;28;20036;-71
2022/09/30 03:10:49;;;;;;;2.55;1.80;;;13.00;90.80;;;;;;5054905;28;20115;-71
2022/09/30 03:13:27;;;;;;;2.13;1.70;;;13.00;91.00;;;;;;5054918;28;20033;-71
2022/09/30 03:15:56;;;;;;;2.13;1.85;;;12.90;90.90;;;;;;5053875;28;20384;-71
2022/09/30 03:18:56;;;;;;;3.03;1.98;;;13.00;90.90;;;;;;5054815;28;20112;-71
2022/09/30 03:21:52;;;;;;;3.60;2.03;;;13.00;91.00;;;;;;5054299;28;20040;-71
2022/09/30 03:24:38;;;;;;;4.68;1.90;;;13.00;90.90;;;;;;5054603;28;20155;-71
2022/09/30 03:27:31;;;;;;;4.10;1.90;;;13.00;90.90;;;;;;5054359;28;20521;-71
2022/09/30 03:30:05;;;;;;;4.07;1.88;;;12.90;90.90;;;;;;5053677;28;20032;-71
2022/09/30 03:32:51;;;;;;;5.10;2.20;;;12.90;91.00;;;;;;5054261;28;20040;-71
2022/09/30 03:35:29;;;;;;;3.90;1.88;;;12.90;91.00;;;;;;5054498;28;20114;-71
2022/09/30 03:38:04;;;;;;;3.70;2.03;;;12.90;91.00;;;;;;5053524;28;20380;-71
2022/09/30 03:41:04;;;;;;;2.65;1.73;;;12.90;90.90;;;;;;5054039;28;20040;-71
2022/09/30 03:43:33;;;;;;;4.15;2.10;;;12.80;90.80;;;;;;5053473;28;20037;-71
2022/09/30 03:46:17;;;;;;;1.98;1.77;;;12.80;90.80;;;;;;5053883;28;20032;-71
2022/09/30 03:48:45;;;;;;;2.92;2.00;;;12.80;91.20;;;;;;5054158;28;20098;-71
2022/09/30 03:51:12;;;;;;;2.10;1.80;;;12.80;90.80;;;;;;5053366;28;20037;-71
2022/09/30 03:53:42;;;;;;;3.58;2.22;;;12.80;90.80;;;;;;5054028;28;20064;-71
2022/09/30 03:56:08;;;;;;;2.90;1.73;;;12.80;91.10;;;;;;5054041;28;20099;-71
2022/09/30 03:58:39;;;;;;;4.43;2.00;;;12.80;90.80;;;;;;5053174;28;20090;-71
2022/09/30 04:01:04;;;;;;;4.70;2.05;;;12.80;90.80;;;;;;5053640;28;20102;-71
2022/09/30 04:03:30;;;;;;;6.18;2.47;;;12.80;90.80;;;;;;5053967;28;20033;-71
2022/09/30 04:05:55;;;;;;;2.70;2.08;;;12.80;90.80;;;;;;5053046;28;20037;-71
2022/09/30 04:08:21;;;;;;;2.28;1.90;;;12.80;90.80;;;;;;5053665;28;20021;-71
2022/09/30 04:10:47;;;;;;;2.55;2.00;;;12.80;90.90;;;;;;5053598;28;20044;-71
2022/09/30 04:13:13;;;;;;;3.17;2.20;;;12.80;90.80;;;;;;5053156;28;20025;-71
2022/09/30 04:15:39;;;;;;;2.30;2.00;;;12.80;90.80;;;;;;5053461;28;20033;-71
2022/09/30 04:18:05;;;;;;;2.50;1.90;;;12.70;90.80;;;;;;5052947;28;20057;-71
2022/09/30 04:20:32;;;;;;;5.78;2.30;;;12.80;90.80;;;;;;5053609;28;20045;-71
2022/09/30 04:22:58;;;;;;;2.75;2.10;;;12.80;90.90;;;;;;5053468;28;20040;-71
2022/09/30 04:25:24;;;;;;;2.88;2.00;;;12.70;90.80;;;;;;5052609;28;20102;-71
2022/09/30 04:27:50;;;;;;;3.30;2.30;;;12.70;90.80;;;;;;5053429;28;20043;-71
2022/09/30 04:30:16;;;;;;;8.68;2.08;;;12.70;90.80;;;;;;5053085;28;20112;-71
2022/09/30 04:32:44;;;;;;;2.72;1.90;;;12.70;90.80;;;;;;5052676;28;20021;-71
2022/09/30 04:35:12;;;;;;;15.05;2.08;;;12.70;90.80;;;;;;5053405;28;20124;-71
2022/09/30 04:37:42;;;;;;;3.55;2.08;;;12.70;90.80;;;;;;5053358;28;20025;-71
2022/09/30 04:40:09;;;;;;;59.72;2.75;;;12.60;90.70;;;;;;5052324;28;20041;-71
2022/09/30 04:42:35;;;;;;;14.80;2.30;;;12.70;90.70;;;;;;5053039;28;20033;-71
2022/09/30 04:45:02;;;;;;;24.70;2.20;;;12.60;90.70;;;;;;5053165;28;20068;-71
2022/09/30 04:47:29;;;;;;;10.88;1.95;;;12.60;90.70;;;;;;5052351;28;20095;-71
2022/09/30 04:49:56;;;;;;;5.68;1.98;;;12.50;90.60;;;;;;5053211;28;20028;-71
2022/09/30 04:52:22;;;;;;;4.32;1.77;;;12.50;90.60;;;;;;5052942;28;20376;-71
2022/09/30 04:54:47;;;;;;;4.03;1.65;;;12.50;90.80;;;;;;5052067;28;20060;-71
2022/09/30 04:57:19;;;;;;;4.25;1.80;;;12.50;90.50;;;;;;5052901;28;20029;-71
2022/09/30 04:59:45;;;;;;;2.30;1.77;;;12.50;90.50;;;;;;5053114;28;20033;-71
2022/09/30 05:02:11;;;;;;;4.55;1.98;;;12.50;90.50;;;;;;5052519;28;20041;-71
2022/09/30 05:04:37;;;;;;;2.38;1.50;;;12.40;90.30;;;;;;5052823;28;20025;-71
2022/09/30 05:07:07;;;;;;;10.07;1.60;;;12.40;90.30;;;;;;5052886;28;20144;-71
2022/09/30 05:09:34;;;;;;;5.97;1.75;;;12.30;90.30;;;;;;5052223;28;20089;-71
2022/09/30 05:12:01;;;;;;;7.03;1.90;;;12.20;90.20;;;;;;5052890;28;20079;-71
2022/09/30 05:14:28;;;;;;;2.92;1.95;;;12.20;90.30;;;;;;5052322;28;20083;-71
2022/09/30 05:16:54;;;;;;;2.22;1.92;;;12.20;90.30;;;;;;5053038;28;20091;-71
2022/09/30 05:19:20;;;;;;;2.45;1.95;;;12.20;90.30;;;;;;5053018;28;20468;-71
2022/09/30 05:21:46;;;;;;;1.98;1.70;;;12.20;90.30;;;;;;5052215;28;20369;-71
2022/09/30 05:24:15;;;;;;;2.90;1.88;;;12.10;90.20;;;;;;5056182;28;20025;-71
2022/09/30 05:26:40;;;;;;;2.53;1.80;;;12.20;90.20;;;;;;5057220;28;20036;-71
2022/09/30 05:29:06;;;;;;;4.53;1.77;;;12.10;90.10;;;;;;5056206;28;20025;-71
2022/09/30 05:31:32;;;;;;;4.68;2.08;;;12.00;90.10;;;;;;5056753;28;20405;-71
2022/09/30 05:33:58;;;;;;;2.85;1.75;;;12.00;90.10;;;;;;5056799;28;20029;-71
2022/09/30 05:36:23;;;;;;;2.08;1.70;;;11.90;90.20;;;;;;5055886;28;20032;-71
2022/09/30 05:38:50;;;;;;;2.22;1.63;;;11.90;90.20;;;;;;5056510;28;20025;-71
2022/09/30 05:41:19;;;;;;;3.22;2.13;;;11.80;90.20;;;;;;5056608;28;20048;-71
2022/09/30 05:43:46;;;;;;;2.55;1.90;;;11.80;90.20;;;;;;5055986;28;20071;-71
2022/09/30 05:46:12;;;;;;;2.20;1.80;;;11.80;90.30;;;;;;5056245;28;20040;-71
2022/09/30 05:48:38;;;;;;;2.40;1.70;;;11.80;90.30;;;;;;5056313;28;20044;-71
2022/09/30 05:51:04;;;;;;;3.08;2.10;;;11.70;90.30;;;;;;5055495;28;20112;-71
2022/09/30 05:53:37;;;;;;;2.83;1.85;;;11.70;90.40;;;;;;5056148;28;20408;-71
2022/09/30 05:56:07;;;;;;;2.22;1.80;;;11.70;90.40;;;;;;5056098;28;20479;-71
2022/09/30 05:58:33;;;;;;;5.07;2.03;;;11.70;90.50;;;;;;5055520;28;20028;-71
2022/09/30 06:01:06;;;;;;;2.63;2.00;;;11.70;90.50;;;;;;5056207;28;20047;-71
2022/09/30 06:03:31;;;;;;;3.28;2.20;;;11.70;90.80;;;;;;5055422;28;20523;-71
2022/09/30 06:05:57;;;;;;;3.50;2.20;;;11.80;90.50;;;;;;5055771;28;20064;-71
2022/09/30 06:08:23;;;;;;;2.47;1.80;;;11.70;90.50;;;;;;5056160;28;20033;-71
2022/09/30 06:10:49;;;;;;;4.90;2.10;;;11.80;90.40;;;;;;5055266;28;20164;-71
2022/09/30 06:13:16;;;;;;;2.58;2.10;;;11.70;90.40;;;;;;5055946;28;20032;-69
2022/09/30 06:15:42;;;;;;;7.90;2.40;;;11.70;90.50;;;;;;5055260;28;20033;-75
2022/09/30 06:18:09;;;;;;;4.07;2.40;;;11.70;90.60;;;;;;5055068;28;20467;-72
2022/09/30 06:20:36;;;;;;;5.38;2.85;;;11.80;90.80;;;;;;5055546;28;20381;-71
2022/09/30 06:23:02;;;;;;;5.05;2.80;;;11.80;90.90;;;;;;5055653;28;20029;-72
2022/09/30 06:25:29;;;;;;;3.90;2.40;;;11.80;90.90;;;;;;5054829;28;20041;-72
2022/09/30 06:27:55;;;;;;;3.05;2.10;;;11.80;91.00;;;;;;5055572;28;20044;-72
2022/09/30 06:30:21;;;;;;;4.32;2.20;;;11.80;90.80;;;;;;5055373;28;20037;-72
2022/09/30 06:32:49;;;;;;;3.00;2.08;;;11.80;90.80;;;;;;5054740;28;20387;-72
2022/09/30 06:35:15;;;;;;;2.55;1.95;;;11.70;91.10;;;;;;5055243;28;20116;-71
2022/09/30 06:37:43;;;;;;;5.65;2.60;;;11.70;90.90;;;;;;5055428;28;20120;-72
2022/09/30 06:40:08;;;;;;;2.45;2.05;;;11.70;91.00;;;;;;5054487;28;20480;-71
2022/09/30 06:42:34;;;;;;;2.72;2.05;;;11.70;91.00;;;;;;5055431;28;20112;-72
2022/09/30 06:45:00;;;;;;;2.75;2.00;;;11.70;91.00;;;;;;5055236;28;20393;-72
2022/09/30 06:47:25;;;;;;;2.55;1.83;;;11.70;91.00;;;;;;5054657;28;20029;-71
2022/09/30 06:49:57;;;;;;;4.15;2.40;;;11.70;91.00;;;;;;5055044;28;20452;-71
2022/09/30 06:52:24;;;;;;;3.30;2.25;;;11.70;91.20;;;;;;5055288;28;20123;-71
2022/09/30 06:54:50;;;;;;;4.03;2.15;;;11.70;91.30;;;;;;5054618;28;20060;-71
2022/09/30 06:57:16;;;;;;;3.60;2.17;;;11.80;91.20;;;;;;5054887;28;20062;-71
2022/09/30 06:59:44;;;;;;;2.97;2.30;;;11.70;91.10;;;;;;5054898;28;20041;-71
2022/09/30 07:02:10;;;;;;;3.88;2.33;;;11.80;91.10;;;;;;5054556;28;20035;-74
2022/09/30 07:04:36;;;;;;;3.80;2.40;;;11.70;91.10;;;;;;5054982;28;20127;-72
2022/09/30 07:07:06;;;;;;;9.07;2.65;;;11.70;91.10;;;;;;5054140;28;20052;-72
2022/09/30 07:09:31;;;;;;;3.63;2.58;;;11.80;91.30;;;;;;5054948;28;20028;-72
2022/09/30 07:11:57;;;;;;;9.45;3.35;;;11.80;91.40;;;;;;5054619;28;20540;-72
2022/09/30 07:14:22;;;;;;;4.70;2.60;;;11.80;91.50;;;;;;5054042;28;20089;-73
2022/09/30 07:16:51;;;;;;;3.95;2.72;;;11.90;91.50;;;;;;5054394;28;20033;-72
2022/09/30 07:19:19;;;;;;;7.20;3.92;;;11.90;91.50;;;;;;5054322;28;20541;-72
2022/09/30 07:21:48;;;;;;;6.97;4.45;;;11.90;91.60;;;;;;5053760;28;20037;-73
2022/09/30 07:24:15;;;;;;;8.10;4.68;;;12.00;91.70;;;;;;5053411;28;20037;-72
2022/09/30 07:26:40;;;;;;;7.50;4.57;;;12.00;91.80;;;;;;5053790;28;20044;-73
2022/09/30 07:29:09;;;;;;;16.73;4.38;;;12.00;91.90;;;;;;5053573;28;20021;-76
2022/09/30 07:31:38;;;;;;;3.92;2.97;;;12.00;91.90;;;;;;5053755;28;20040;-73
2022/09/30 07:34:06;;;;;;;4.80;2.90;;;12.10;91.80;;;;;;5053646;28;20075;-73
2022/09/30 07:36:33;;;;;;;7.30;2.42;;;12.10;91.60;;;;;;5053348;28;20029;-72
2022/09/30 07:38:59;;;;;;;4.07;1.73;;;12.10;91.30;;;;;;5054221;28;20476;-73
2022/09/30 07:41:27;;;;;;;3.72;3.00;;;12.10;91.00;;;;;;5054390;28;20037;-72
2022/09/30 07:43:58;;;;;;;5.70;2.50;;;12.10;91.10;;;;;;5053302;28;20033;-69
2022/09/30 07:46:30;;;;;;;4.20;3.20;;;12.10;91.10;;;;;;5053743;28;20033;-69
2022/09/30 07:49:00;;;;;;;5.57;3.05;;;12.10;91.10;;;;;;5054117;28;20020;-69
2022/09/30 07:51:32;;;;;;;4.47;3.10;;;12.10;91.00;;;;;;5054185;28;20108;-70
2022/09/30 07:54:04;;;;;;;4.53;3.33;;;12.10;91.10;;;;;;5053778;28;20049;-69
2022/09/30 07:56:30;;;;;;;6.70;3.40;;;12.10;91.20;;;;;;5053197;28;20083;-71
2022/09/30 07:58:59;;;;;;;2.90;2.00;;;12.00;91.10;;;;;;5054419;28;20033;-72
2022/09/30 08:01:25;;;;;;;5.70;3.30;;;12.10;90.90;;;;;;5053191;28;20040;-70
2022/09/30 08:03:54;;;;;;;4.45;2.80;;;12.10;91.00;;;;;;5052635;28;20057;-69
2022/09/30 08:06:20;;;;;;;8.15;4.10;;;12.10;91.00;;;;;;5052749;28;20051;-73
2022/09/30 08:08:46;;;;;;;7.88;3.50;;;12.10;91.10;;;;;;5052624;28;20399;-72
2022/09/30 08:11:13;;;;;;;5.35;3.40;;;12.10;91.20;;;;;;5052307;28;20029;-72
2022/09/30 08:13:39;;;;;;;4.90;3.15;;;12.20;91.40;;;;;;5053000;28;20107;-72
2022/09/30 08:16:05;;;;;;;6.70;3.40;;;12.10;91.30;;;;;;5053170;28;20219;-72
2022/09/30 08:18:31;;;;;;;4.78;3.17;;;12.20;91.40;;;;;;5052258;28;20408;-72
2022/09/30 08:21:03;;;;;;;5.50;3.15;;;12.20;91.30;;;;;;5053230;28;20052;-72
2022/09/30 08:23:29;;;;;;;4.55;2.70;;;12.20;91.60;;;;;;5052946;28;20029;-74
2022/09/30 08:26:03;;;;;;;7.82;3.80;;;12.20;91.40;;;;;;5052833;28;20036;-71
2022/09/30 08:28:32;;;;;;;13.82;3.80;;;12.20;91.80;;;;;;5052575;28;20021;-74
2022/09/30 08:31:05;;;;;;;4.47;3.15;;;12.30;91.80;;;;;;5051329;28;20039;-73
2022/09/30 08:33:31;;;;;;;;;;;12.40;92.10;;;;;;5051944;28;20040;-72
2022/09/30 08:36:04;;;;;;;5.80;2.60;;;12.40;91.60;;;;;;5053011;28;19955;-74
2022/09/30 08:38:30;;;;;;;4.72;3.15;;;12.50;91.40;;;;;;5052712;28;20064;-73
2022/09/30 08:41:07;;;;;;;4.35;2.97;;;12.40;91.40;;;;;;5053265;28;20118;-72
2022/09/30 08:43:53;;;;;;;6.93;2.88;;;12.50;91.70;;;;;;5053293;28;20118;-72
2022/09/30 08:46:36;;;;;;;4.35;2.58;;;12.50;91.80;;;;;;5052402;28;20078;-72
2022/09/30 08:49:28;;;;;;;7.70;2.58;;;12.60;91.60;;;;;;5052432;28;20507;-72
2022/09/30 08:51:55;;;;;;;3.95;2.47;;;12.60;91.70;;;;;;5052723;28;20036;-73
2022/09/30 08:54:24;;;;;;;4.53;1.63;;;12.70;91.50;;;;;;5051785;28;20127;-73
2022/09/30 08:56:50;;;;;;;4.90;2.65;;;12.70;91.40;;;;;;5052967;28;20126;-74
2022/09/30 08:59:31;;;;;;;2.22;1.88;;;12.70;91.50;;;;;;5056633;28;20040;-73
2022/09/30 09:02:15;;;;;;;5.07;2.47;;;12.70;91.40;;;;;;5057171;28;20033;-73
2022/09/30 09:04:41;;;;;;;3.55;2.38;;;12.80;91.70;;;;;;5056575;28;20392;-73
2022/09/30 09:07:23;;;;;;;3.72;2.40;;;12.80;91.50;;;;;;5053258;28;20041;-74
2022/09/30 09:10:15;;;;;;;3.67;2.40;;;12.80;91.90;;;;;;5057029;28;20036;-73
2022/09/30 09:12:59;;;;;;;3.65;1.77;;;12.80;91.70;;;;;;5056333;28;20060;-70
2022/09/30 09:15:33;;;;;;;4.30;2.78;;;12.80;91.60;;;;;;5036183;28;20029;-70
2022/09/30 09:18:18;;;;;;;4.03;2.45;;;12.90;92.00;;;;;;5037140;28;20033;-71
2022/09/30 09:20:54;;;;;;;2.05;1.25;;;12.90;92.00;;;;;;5054965;28;20048;-70
2022/09/30 09:23:22;;;;;;;4.57;1.23;;;13.00;91.80;;;;;;5056777;28;20067;-71
2022/09/30 09:25:51;;;;;;;5.35;2.30;;;13.00;91.80;;;;;;5055961;28;20116;-70
2022/09/30 09:28:24;;;;;;;2.63;2.03;;;13.00;91.90;;;;;;5055589;28;20075;-72
2022/09/30 09:30:56;;;;;;;2.15;1.23;;;13.00;92.00;;;;;;5055629;28;20119;-72
2022/09/30 09:33:28;;;;;;;2.22;1.77;;;13.00;91.90;;;;;;5056272;28;20029;-72
2022/09/30 09:36:11;;;;;;;1.52;1.20;;;13.10;92.00;;;;;;5052695;28;20032;-72
2022/09/30 09:38:56;;;;;;;3.78;2.40;;;13.20;92.00;;;;;;5053880;28;20056;-72
2022/09/30 09:41:35;;;;;;;0.70;0.70;;;13.10;92.30;;;;;;5054580;28;20037;-73
2022/09/30 09:44:29;;;;;;;12.80;3.50;;;13.20;92.40;;;;;;5054062;28;20021;-72
2022/09/30 09:47:13;;;;;;;2.28;1.20;;;13.20;92.70;;;;;;5053096;28;20044;-73
2022/09/30 09:49:40;;;;;;;;;;;13.20;92.60;;;;;;5055622;28;20112;-74
2022/09/30 09:52:12;;;;;;;1.35;1.15;;;13.20;92.70;;;;;;5055290;28;19909;-72
2022/09/30 09:54:46;;;;;;;6.53;1.90;;;13.20;92.80;;;;;;5054993;28;20072;-72
2022/09/30 09:57:16;;;;;;;6.95;2.47;;;13.20;93.10;;;;;;5053408;28;20025;-73
2022/09/30 10:01:04;;;;;;;0.50;0.50;;;13.30;93.30;;;;;;5055041;28;20041;-83
2022/09/30 10:02:59;;;;;;;2.45;1.65;;;13.30;93.10;;;;;;5053883;28;20025;-81
2022/09/30 10:05:27;;;;;;;0.57;0.57;;;13.40;93.20;;;;;;5056315;28;20502;-81
2022/09/30 10:08:15;;;;;;;7.93;1.98;;;13.40;93.20;;;;;;5054929;28;20369;-80
2022/09/30 10:10:45;;;;;;;1.52;1.13;;;13.40;93.40;;;;;;5054371;28;20047;-82
2022/09/30 10:13:23;;;;;;;3.13;1.70;;;13.50;93.40;;;;;;5055047;28;20095;-79
2022/09/30 10:15:52;;;;;;;2.08;1.52;;;13.60;93.70;;;;;;5055098;28;20037;-80
2022/09/30 10:18:24;;;;;;;7.43;2.10;;;13.60;93.70;;;;;;5054339;28;20035;-75
2022/09/30 10:20:54;;;;;;;1.40;1.02;;;13.70;93.60;;;;;;5054638;28;20036;-82
2022/09/30 10:23:26;;;;;;;0.60;0.60;;;13.80;93.60;;;;;;5054831;28;20033;-80
2022/09/30 10:26:15;;;;;;;0.55;0.55;;;13.80;93.60;;;;;;5053838;28;20060;-79
2022/09/30 10:29:00;;;;;;;0.40;0.40;;;13.80;93.70;;;;;;5054159;28;20423;-69
2022/09/30 10:31:30;;;;;;;0.65;0.47;;;13.80;93.60;;;;;;5052547;28;20087;-68
2022/09/30 10:34:17;;;;;;;0.35;0.35;;;13.90;93.80;;;;;;5051739;28;20039;-69
2022/09/30 10:36:44;;;;;;;0.38;0.38;;;13.90;93.80;;;;;;5053328;28;20029;-66
2022/09/30 10:39:35;;;;;;;0.20;0.20;;;13.90;94.00;;;;;;5053253;28;20120;-71
2022/09/30 10:42:20;;;;;;;1.38;0.98;;;13.90;94.10;;;;;;5053621;28;20045;-72
2022/09/30 10:44:48;;;;;;;0.77;0.77;;;14.00;94.20;;;;;;5051124;28;20025;-73
2022/09/30 10:47:21;;;;;;;0.20;0.20;;;14.00;94.30;;;;;;5053111;28;20726;-73
2022/09/30 10:49:51;;;;;;;0.83;0.80;;;14.00;94.40;;;;;;5053530;28;20029;-73
2022/09/30 10:52:27;;;;;;;0.85;0.70;;;14.00;94.40;;;;;;5052957;28;20375;-74
2022/09/30 10:54:54;;;;;;;0.65;0.60;;;14.10;94.50;;;;;;5017428;28;1047675;-74
2022/09/30 10:57:28;;;;;;;1.30;0.88;;;14.10;94.50;;;;;;5051893;28;20033;-73
2022/09/30 10:59:59;;;;;;;1.58;0.98;;;14.10;94.50;;;;;;5053947;28;20499;-74
2022/09/30 11:02:36;;;;;;;3.05;0.95;;;14.20;94.50;;;;;;5054283;28;20033;-74
2022/09/30 11:05:10;;;;;;;0.40;0.40;;;14.20;94.60;;;;;;5052925;28;20032;-73
2022/09/30 11:07:59;;;;;;;1.30;1.13;;;14.30;94.50;;;;;;5034252;28;20572;-74
2022/09/30 11:10:56;;;;;;;3.45;1.15;;;14.40;94.70;;;;;;5052373;28;20463;-74
2022/09/30 11:13:40;;;;;;;1.30;1.13;;;14.50;94.60;;;;;;5051403;28;20380;-73
2022/09/30 11:16:34;;;;;;;1.38;1.05;;;14.50;94.50;;;;;;5053211;28;20035;-73
2022/09/30 11:19:35;;;;;;;1.42;1.02;;;14.70;94.50;;;;;;5036573;28;20033;-73
2022/09/30 11:22:23;;;;;;;3.25;1.33;;;14.70;94.60;;;;;;5052368;28;20048;-72
2022/09/30 11:24:52;;;;;;;4.95;1.67;;;14.80;94.60;;;;;;5053704;28;20495;-72
2022/09/30 11:27:26;;;;;;;1.85;1.13;;;14.80;94.60;;;;;;5052998;28;20510;-74
2022/09/30 11:30:16;;;;;;;1.83;1.60;;;14.90;94.70;;;;;;5054115;28;20037;-73
2022/09/30 11:32:58;;;;;;;4.97;1.33;;;14.90;94.80;;;;;;5054404;28;20033;-70
2022/09/30 11:35:33;;;;;;;3.53;2.05;;;14.90;94.90;;;;;;5053536;28;20035;-74
2022/09/30 11:38:22;;;;;;;1.95;1.50;;;15.00;94.80;;;;;;5054431;28;20032;-72
2022/09/30 11:41:08;;;;;;;1.05;0.75;;;15.10;94.80;;;;;;5054238;28;20052;-73
2022/09/30 11:43:55;;;;;;;0.80;0.80;;;15.20;94.80;;;;;;5054341;28;20037;-69
2022/09/30 11:46:39;;;;;;;1.90;1.27;;;15.20;94.80;;;;;;5054267;28;20036;-69
2022/09/30 11:49:25;;;;;;;0.90;0.90;;;15.30;94.80;;;;;;5053386;28;20024;-69
2022/09/30 11:51:50;;;;;;;8.27;1.77;;;15.30;95.10;;;;;;5054125;28;20040;-68
2022/09/30 11:54:45;;;;;;;2.70;1.25;;;15.40;94.80;;;;;;5053429;28;20044;-68
2022/09/30 11:57:24;;;;;;;1.02;0.90;;;15.50;94.70;;;;;;5044527;28;20500;-68
2022/09/30 12:00:22;;;;;;;2.13;1.05;;;15.50;94.70;;;;;;5053778;28;20510;-69
2022/09/30 12:02:51;;;;;;;0.65;0.65;;;15.60;94.70;;;;;;5052867;28;20132;-69
2022/09/30 12:05:27;;;;;;;2.60;1.48;;;15.70;94.60;;;;;;5054043;28;20457;-68
2022/09/30 12:08:05;;;;;;;0.93;0.93;;;15.80;94.40;;;;;;5053513;28;20095;-68
2022/09/30 12:10:36;;;;;;;1.25;0.77;;;15.80;94.50;;;;;;5053001;28;20029;-68
2022/09/30 12:13:07;;;;;;;0.63;0.63;;;16.00;94.40;;;;;;5053621;28;20372;-68
2022/09/30 12:15:35;;;;;;;1.38;1.02;;;16.00;94.20;;;;;;5053681;28;20025;-68
2022/09/30 12:18:06;;;;;;;1.40;1.20;;;16.00;94.10;;;;;;5052812;28;20033;-68
2022/09/30 12:20:53;;;;;;;1.88;1.13;;;16.00;93.90;;;;;;5053020;28;20099;-68
2022/09/30 12:23:32;;;;;;;1.17;0.98;;;16.10;93.90;;;;;;5052533;28;20032;-69
2022/09/30 12:26:00;;;;;;;3.85;1.38;;;16.20;94.00;;;;;;5053391;28;20025;-69
2022/09/30 12:31:53;;;;;;;1.90;1.17;;;16.30;94.10;;;;;;5052550;28;20083;-70
2022/09/30 12:34:38;;;;;;;0.82;0.75;;;16.40;93.90;;;;;;5055385;28;20037;-70
2022/09/30 12:37:27;;;;;;;2.20;1.30;;;16.40;93.50;;;;;;5054116;28;20494;-69
2022/09/30 12:39:58;;;;;;;1.27;1.15;;;16.50;93.60;;;;;;5053279;28;20051;-70
2022/09/30 12:42:36;;;;;;;1.27;0.90;;;16.60;93.80;;;;;;5053526;28;20404;-69
2022/09/30 12:45:21;;;;;;;1.27;0.80;;;16.60;93.60;;;;;;5052655;28;20101;-70
2022/09/30 12:47:57;;;;;;;0.90;0.85;;;16.70;93.40;;;;;;5053384;28;20120;-70
2022/09/30 12:50:28;;;;;;;0.82;0.82;;;16.80;93.40;;;;;;5053256;28;20101;-69
2022/09/30 12:52:58;;;;;;;3.65;0.90;;;16.90;93.30;;;;;;5052626;28;20032;-70
2022/09/30 12:55:36;;;;;;;1.15;0.80;;;16.90;92.90;;;;;;5053027;28;20049;-70
2022/09/30 12:58:04;;;;;;;0.63;0.63;;;16.90;93.00;;;;;;5053212;28;20040;-70
2022/09/30 13:00:35;;;;;;;3.30;0.95;;;17.00;92.80;;;;;;5052717;28;20563;-70
2022/09/30 13:03:14;;;;;;;0.55;0.55;;;17.10;92.60;;;;;;5053073;28;20112;-70
2022/09/30 13:05:39;;;;;;;1.85;0.93;;;17.20;92.90;;;;;;5052505;28;20044;-70
2022/09/30 13:08:05;;;;;;;0.40;0.40;;;17.30;92.80;;;;;;5052945;28;20025;-70
2022/09/30 13:10:39;;;;;;;0.85;0.60;;;17.40;92.90;;;;;;5052896;28;20118;-70
2022/09/30 13:13:28;;;;;;;0.65;0.50;;;17.40;92.70;;;;;;5052246;28;20075;-69
2022/09/30 13:16:02;;;;;;;0.30;0.30;;;17.50;92.30;;;;;;5053207;28;20033;-70
2022/09/30 13:18:28;;;;;;;0.80;0.63;;;17.60;92.40;;;;;;5053159;28;20495;-70
2022/09/30 13:21:09;;;;;;;0.43;0.43;;;17.60;92.50;;;;;;5052148;28;20126;-70
2022/09/30 13:23:46;;;;;;;0.40;0.40;;;17.60;92.10;;;;;;5052770;28;20139;-70
2022/09/30 13:26:31;;;;;;;0.88;0.65;;;17.70;91.90;;;;;;5053035;28;20036;-70